Time;durP1;ratioP1;P1;durP2;ratioP2;P2;SDS_P1;SDS_P2;PMS_P1;PMS_P2;Temp;Humidity;BMP_temperature;BMP_pressure;BME280_temperature;BME280_humidity;BME280_pressure;Samples;Min_cycle;Max_cycle;Signal;HPM_P1;HPM_P2
2021/12/29 00:00:29;;;;;;;6.47;2.25;;;7.80;99.90;;;;;;5024427;28;20514;-83
2021/12/29 00:02:58;;;;;;;6.18;1.38;;;7.80;99.90;;;;;;5035834;28;20029;-84
2021/12/29 00:05:24;;;;;;;6.95;1.70;;;7.80;99.90;;;;;;5019405;28;20052;-84
2021/12/29 00:07:49;;;;;;;13.88;1.60;;;7.80;99.90;;;;;;5051978;28;20036;-84
2021/12/29 00:10:18;;;;;;;9.68;1.98;;;7.80;99.90;;;;;;5035153;28;20036;-84
2021/12/29 00:12:48;;;;;;;5.57;1.40;;;7.80;99.90;;;;;;5051612;28;20025;-84
2021/12/29 00:15:16;;;;;;;4.28;1.40;;;7.80;99.90;;;;;;5035966;28;20506;-84
2021/12/29 00:17:44;;;;;;;5.78;1.30;;;7.80;99.90;;;;;;5035364;28;20047;-84
2021/12/29 00:20:17;;;;;;;10.98;1.63;;;7.80;99.90;;;;;;5051595;28;20156;-84
2021/12/29 00:22:43;;;;;;;6.63;1.58;;;7.80;99.90;;;;;;5035536;28;20033;-84
2021/12/29 00:25:10;;;;;;;8.23;1.30;;;7.70;99.90;;;;;;5051803;28;20040;-84
2021/12/29 00:27:41;;;;;;;9.98;2.10;;;7.70;99.90;;;;;;5035718;28;20039;-84
2021/12/29 00:30:09;;;;;;;6.18;1.55;;;7.70;99.90;;;;;;5035225;28;20025;-84
2021/12/29 00:32:35;;;;;;;4.93;1.35;;;7.70;99.90;;;;;;5034985;28;20122;-84
2021/12/29 00:35:02;;;;;;;5.07;1.40;;;7.70;99.90;;;;;;5017954;28;20025;-84
2021/12/29 00:37:28;;;;;;;4.55;1.75;;;7.70;99.90;;;;;;5002189;28;20120;-84
2021/12/29 00:39:53;;;;;;;5.82;1.55;;;7.70;99.90;;;;;;5023304;28;20092;-84
2021/12/29 00:42:20;;;;;;;6.28;1.58;;;7.70;99.90;;;;;;5028740;28;20068;-84
2021/12/29 00:44:45;;;;;;;5.95;1.13;;;7.70;99.90;;;;;;5018361;28;20064;-84
2021/12/29 00:47:12;;;;;;;4.43;1.30;;;7.70;99.90;;;;;;5017770;28;20021;-84
2021/12/29 00:49:38;;;;;;;4.97;1.17;;;7.70;99.90;;;;;;5034196;28;20525;-84
2021/12/29 00:52:07;;;;;;;4.13;1.17;;;7.70;99.90;;;;;;5017775;28;20403;-84
2021/12/29 00:54:34;;;;;;;2.42;0.90;;;7.70;99.90;;;;;;5045059;28;20032;-84
2021/12/29 00:57:00;;;;;;;6.57;1.55;;;7.80;99.90;;;;;;5031001;28;20032;-84
2021/12/29 00:59:26;;;;;;;4.95;1.13;;;7.80;99.90;;;;;;5074207;28;20035;-84
2021/12/29 01:01:53;;;;;;;9.05;1.40;;;7.80;99.90;;;;;;5055194;28;20115;-84
2021/12/29 01:04:19;;;;;;;5.82;1.65;;;7.80;99.90;;;;;;5066408;28;20205;-84
2021/12/29 01:06:45;;;;;;;2.97;1.27;;;7.70;99.90;;;;;;5040275;28;20116;-84
2021/12/29 01:09:11;;;;;;;6.55;1.23;;;7.80;99.90;;;;;;5037204;28;20131;-84
2021/12/29 01:11:37;;;;;;;11.52;1.30;;;7.80;99.90;;;;;;5071228;28;20024;-84
2021/12/29 01:14:05;;;;;;;6.50;1.27;;;7.80;99.90;;;;;;5057655;28;20024;-84
2021/12/29 01:18:56;;;;;;;2.83;1.30;;;7.70;99.90;;;;;;5092139;28;20565;-84
2021/12/29 01:21:22;;;;;;;9.15;1.20;;;7.70;99.90;;;;;;5042350;28;20032;-84
2021/12/29 01:23:48;;;;;;;11.43;1.73;;;7.70;99.90;;;;;;5041730;28;20521;-84
2021/12/29 01:26:13;;;;;;;7.72;0.93;;;7.70;99.90;;;;;;5028361;28;20082;-84
2021/12/29 01:28:39;;;;;;;8.65;1.35;;;7.70;99.90;;;;;;5020518;28;20036;-84
2021/12/29 01:31:04;;;;;;;3.88;1.20;;;7.70;99.90;;;;;;5020861;28;20059;-84
2021/12/29 01:33:30;;;;;;;4.10;1.67;;;7.70;99.90;;;;;;5020829;28;20423;-84
2021/12/29 01:35:56;;;;;;;7.05;1.75;;;7.70;99.90;;;;;;5019977;28;20426;-84
2021/12/29 01:38:25;;;;;;;2.10;1.25;;;7.70;99.90;;;;;;5020588;28;20049;-84
2021/12/29 01:40:50;;;;;;;7.72;1.33;;;7.70;99.90;;;;;;5020755;28;20025;-84
2021/12/29 01:43:20;;;;;;;6.18;1.35;;;7.70;99.90;;;;;;5051951;28;20043;-84
2021/12/29 01:45:46;;;;;;;2.70;1.02;;;7.70;99.90;;;;;;5039530;28;20085;-84
2021/12/29 01:48:12;;;;;;;5.07;1.58;;;7.60;99.90;;;;;;5056459;28;20028;-84
2021/12/29 01:50:40;;;;;;;9.98;1.58;;;7.60;99.90;;;;;;5050928;28;20130;-84
2021/12/29 01:53:10;;;;;;;6.68;1.35;;;7.60;99.90;;;;;;5020618;28;20028;-84
2021/12/29 01:55:37;;;;;;;4.85;1.52;;;7.60;99.90;;;;;;5017039;28;20064;-84
2021/12/29 01:58:04;;;;;;;2.75;1.38;;;7.60;99.90;;;;;;5033619;28;20128;-84
2021/12/29 02:00:32;;;;;;;12.93;2.83;;;7.60;99.90;;;;;;5052497;28;20064;-84
2021/12/29 02:02:58;;;;;;;11.35;1.80;;;7.60;99.90;;;;;;5039367;28;20025;-84
2021/12/29 02:05:23;;;;;;;9.25;1.73;;;7.60;99.90;;;;;;5022852;28;20025;-84
2021/12/29 02:07:50;;;;;;;3.25;1.67;;;7.60;99.90;;;;;;5036989;28;20136;-84
2021/12/29 02:10:18;;;;;;;8.30;1.75;;;7.60;99.90;;;;;;5053603;28;20040;-84
2021/12/29 02:12:44;;;;;;;4.95;1.67;;;7.60;99.90;;;;;;5052889;28;20055;-84
2021/12/29 02:15:11;;;;;;;4.15;1.42;;;7.60;99.90;;;;;;5054886;28;20447;-84
2021/12/29 02:17:38;;;;;;;10.43;1.92;;;7.60;99.90;;;;;;5062358;28;20107;-84
2021/12/29 02:20:08;;;;;;;8.98;1.67;;;7.60;99.90;;;;;;5069116;28;20074;-84
2021/12/29 02:25:21;;;;;;;4.68;1.58;;;7.60;99.90;;;;;;5056700;28;20040;-84
2021/12/29 02:27:51;;;;;;;4.85;1.50;;;7.60;99.90;;;;;;5057127;28;20050;-84
2021/12/29 02:30:19;;;;;;;2.63;1.10;;;7.60;99.90;;;;;;5055684;28;20028;-84
2021/12/29 02:32:45;;;;;;;5.47;1.30;;;7.60;99.90;;;;;;5055668;28;20028;-84
2021/12/29 02:35:13;;;;;;;6.00;1.52;;;7.60;99.90;;;;;;5056152;28;20111;-84
2021/12/29 02:37:42;;;;;;;2.95;1.40;;;7.60;99.90;;;;;;5035571;28;20032;-84
2021/12/29 02:40:12;;;;;;;6.38;1.50;;;7.60;99.90;;;;;;5016679;28;20033;-84
2021/12/29 02:42:42;;;;;;;9.20;1.43;;;7.60;99.90;;;;;;5050743;28;20051;-84
2021/12/29 02:45:11;;;;;;;6.95;1.38;;;7.60;99.90;;;;;;5035871;28;20283;-83
2021/12/29 02:47:37;;;;;;;7.03;1.80;;;7.60;99.90;;;;;;5051281;28;20402;-83
2021/12/29 02:50:04;;;;;;;5.75;1.38;;;7.60;99.90;;;;;;5058454;28;20028;-84
2021/12/29 02:52:29;;;;;;;2.22;1.25;;;7.60;99.90;;;;;;5052131;28;20041;-84
2021/12/29 02:54:55;;;;;;;4.10;1.40;;;7.60;99.90;;;;;;5035312;28;20041;-84
2021/12/29 02:57:21;;;;;;;4.35;1.30;;;7.60;99.90;;;;;;5022701;28;20495;-84
2021/12/29 02:59:46;;;;;;;3.70;1.10;;;7.60;99.90;;;;;;5055501;28;20029;-84
2021/12/29 03:02:12;;;;;;;3.03;1.25;;;7.60;99.90;;;;;;5038937;28;20029;-83
2021/12/29 03:04:38;;;;;;;7.85;1.58;;;7.60;99.90;;;;;;5038846;28;20032;-84
2021/12/29 03:07:04;;;;;;;2.83;1.13;;;7.60;99.90;;;;;;5055421;28;20047;-84
2021/12/29 03:09:30;;;;;;;6.20;1.77;;;7.60;99.90;;;;;;5055403;28;20495;-84
2021/12/29 03:11:56;;;;;;;5.68;1.48;;;7.60;99.90;;;;;;5038757;28;20033;-84
2021/12/29 03:14:24;;;;;;;7.40;1.88;;;7.50;99.90;;;;;;5036609;28;20040;-84
2021/12/29 03:16:50;;;;;;;10.77;1.70;;;7.50;99.90;;;;;;5075187;28;20055;-84
2021/12/29 03:19:16;;;;;;;6.72;1.73;;;7.50;99.90;;;;;;5075631;28;20055;-83
2021/12/29 03:21:42;;;;;;;13.25;1.60;;;7.50;99.90;;;;;;5053768;28;20380;-83
2021/12/29 03:24:08;;;;;;;8.45;1.50;;;7.50;99.90;;;;;;5034961;28;20033;-84
2021/12/29 03:26:34;;;;;;;5.88;1.20;;;7.50;99.90;;;;;;5035173;28;20044;-84
2021/12/29 03:28:59;;;;;;;5.75;1.58;;;7.50;99.90;;;;;;5022003;28;20037;-84
2021/12/29 03:31:27;;;;;;;5.53;1.33;;;7.50;99.90;;;;;;5054949;28;20024;-84
2021/12/29 03:33:53;;;;;;;4.65;1.52;;;7.50;99.90;;;;;;5038636;28;20028;-84
2021/12/29 03:36:19;;;;;;;16.00;2.75;;;7.50;99.90;;;;;;5042656;28;20028;-83
2021/12/29 03:38:46;;;;;;;7.70;1.45;;;7.50;99.90;;;;;;5037793;28;20029;-84
2021/12/29 03:41:14;;;;;;;8.40;1.42;;;7.50;99.90;;;;;;5036242;28;20152;-84
2021/12/29 03:43:41;;;;;;;10.85;1.60;;;7.50;99.90;;;;;;5056315;28;20085;-83
2021/12/29 03:46:08;;;;;;;9.02;1.60;;;7.50;99.90;;;;;;5041581;28;20504;-84
2021/12/29 03:48:35;;;;;;;10.77;1.30;;;7.50;99.90;;;;;;5060860;28;20039;-84
2021/12/29 03:51:02;;;;;;;9.52;1.63;;;7.50;99.90;;;;;;5023729;28;20029;-83
2021/12/29 03:53:28;;;;;;;8.02;1.50;;;7.50;99.90;;;;;;5016075;28;20123;-84
2021/12/29 03:55:53;;;;;;;5.80;1.40;;;7.40;99.90;;;;;;5021385;28;20163;-84
2021/12/29 03:58:21;;;;;;;5.18;1.15;;;7.50;99.90;;;;;;5038040;28;20028;-83
2021/12/29 04:00:49;;;;;;;3.83;1.20;;;7.50;99.90;;;;;;5012428;28;20120;-84
2021/12/29 04:03:15;;;;;;;8.07;1.30;;;7.50;99.90;;;;;;5051148;28;20027;-84
2021/12/29 04:05:41;;;;;;;10.30;1.80;;;7.40;99.90;;;;;;5061093;28;20119;-84
2021/12/29 04:08:07;;;;;;;11.65;1.90;;;7.50;99.90;;;;;;5043527;28;20032;-84
2021/12/29 04:10:33;;;;;;;3.60;1.48;;;7.50;99.90;;;;;;5065861;23;20580;-85
2021/12/29 04:12:59;;;;;;;7.32;1.50;;;7.50;99.90;;;;;;5063214;28;20119;-86
2021/12/29 04:15:25;;;;;;;14.55;2.17;;;7.50;99.90;;;;;;5040384;28;20558;-85
2021/12/29 04:17:58;;;;;;;5.80;1.60;;;7.40;99.90;;;;;;5031474;28;20044;-86
2021/12/29 04:23:14;;;;;;;3.75;1.42;;;7.50;99.90;;;;;;5051484;28;20407;-86
2021/12/29 04:25:41;;;;;;;15.98;1.83;;;7.40;99.90;;;;;;5043581;28;20025;-86
2021/12/29 04:28:14;;;;;;;7.47;1.88;;;7.40;99.90;;;;;;5049387;28;20444;-86
2021/12/29 04:30:40;;;;;;;9.10;1.77;;;7.40;99.90;;;;;;5043139;28;20393;-86
2021/12/29 04:33:07;;;;;;;8.93;1.52;;;7.40;99.90;;;;;;5029953;28;20033;-86
2021/12/29 04:35:32;;;;;;;6.70;1.55;;;7.40;99.90;;;;;;5032862;28;20033;-86
2021/12/29 04:37:59;;;;;;;7.10;1.58;;;7.40;99.90;;;;;;5070724;28;20039;-86
2021/12/29 04:40:24;;;;;;;5.32;1.67;;;7.40;99.90;;;;;;5050506;28;20044;-85
2021/12/29 04:42:51;;;;;;;10.70;1.83;;;7.40;99.90;;;;;;5052733;28;20484;-85
2021/12/29 04:45:17;;;;;;;7.60;1.83;;;7.40;99.90;;;;;;5049784;28;20512;-86
2021/12/29 04:47:45;;;;;;;5.13;1.65;;;7.40;99.90;;;;;;5017656;28;20039;-85
2021/12/29 04:50:26;;;;;;;8.55;1.52;;;7.40;99.90;;;;;;5022453;28;20041;-86
2021/12/29 04:52:54;;;;;;;4.28;1.90;;;7.40;99.90;;;;;;5037831;28;20044;-85
2021/12/29 04:55:20;;;;;;;9.80;1.88;;;7.40;99.90;;;;;;5000966;28;20040;-86
2021/12/29 04:57:46;;;;;;;6.88;1.20;;;7.30;99.90;;;;;;5035995;28;20039;-85
2021/12/29 05:00:12;;;;;;;3.50;1.35;;;7.30;99.90;;;;;;5034473;28;20493;-86
2021/12/29 05:02:37;;;;;;;9.50;1.52;;;7.40;99.90;;;;;;5029959;28;20029;-85
2021/12/29 05:05:18;;;;;;;5.22;1.50;;;7.30;99.90;;;;;;5032399;28;20525;-86
2021/12/29 05:10:27;;;;;;;6.22;1.65;;;7.30;99.90;;;;;;5057198;28;20456;-86
2021/12/29 05:12:53;;;;;;;4.53;1.40;;;7.30;99.90;;;;;;5008333;28;20069;-85
2021/12/29 05:15:19;;;;;;;6.85;1.42;;;7.30;99.90;;;;;;4997181;28;20082;-85
2021/12/29 05:17:44;;;;;;;8.45;1.70;;;7.30;99.90;;;;;;5012015;28;20261;-86
2021/12/29 05:20:10;;;;;;;9.10;1.30;;;7.30;99.90;;;;;;5032020;28;20025;-85
2021/12/29 05:22:36;;;;;;;8.38;1.77;;;7.30;99.90;;;;;;5029175;28;20032;-86
2021/12/29 05:25:02;;;;;;;10.18;1.55;;;7.30;99.90;;;;;;5037508;28;20031;-85
2021/12/29 05:27:27;;;;;;;5.30;1.40;;;7.30;99.90;;;;;;4995423;28;20087;-85
2021/12/29 05:29:53;;;;;;;12.18;1.80;;;7.30;99.90;;;;;;4995858;28;20405;-86
2021/12/29 05:32:21;;;;;;;4.45;1.38;;;7.30;99.90;;;;;;5009740;28;20025;-85
2021/12/29 05:34:46;;;;;;;7.70;1.33;;;7.30;99.90;;;;;;5019076;28;20032;-86
2021/12/29 05:37:12;;;;;;;6.97;1.60;;;7.30;99.90;;;;;;5014190;28;20253;-85
2021/12/29 05:39:38;;;;;;;3.00;1.15;;;7.30;99.90;;;;;;5045901;28;20039;-85
2021/12/29 05:42:04;;;;;;;8.27;1.50;;;7.30;99.90;;;;;;5017521;28;20056;-86
2021/12/29 05:44:29;;;;;;;4.07;1.35;;;7.30;99.90;;;;;;4999916;28;20091;-86
2021/12/29 05:46:55;;;;;;;7.10;1.83;;;7.30;99.90;;;;;;5032911;28;20044;-86
2021/12/29 05:49:21;;;;;;;1.42;0.95;;;7.30;99.90;;;;;;5002819;28;20099;-85
2021/12/29 05:51:46;;;;;;;7.30;1.23;;;7.30;99.90;;;;;;5012836;28;20075;-86
2021/12/29 05:54:12;;;;;;;5.50;1.52;;;7.30;99.90;;;;;;5022287;28;20061;-86
2021/12/29 05:56:41;;;;;;;6.95;1.17;;;7.30;99.90;;;;;;5027180;28;20029;-86
2021/12/29 05:59:06;;;;;;;3.38;1.20;;;7.30;99.90;;;;;;4998449;28;20048;-86
2021/12/29 06:01:33;;;;;;;7.07;1.48;;;7.30;99.90;;;;;;5032267;28;20106;-86
2021/12/29 06:03:58;;;;;;;7.25;1.40;;;7.30;99.90;;;;;;5045516;28;20033;-86
2021/12/29 06:06:24;;;;;;;4.97;1.15;;;7.30;99.90;;;;;;5040035;28;20541;-86
2021/12/29 06:08:50;;;;;;;6.07;1.40;;;7.30;99.90;;;;;;5033529;28;20029;-85
2021/12/29 06:11:15;;;;;;;4.50;1.42;;;7.30;99.90;;;;;;5029365;28;20043;-86
2021/12/29 06:13:42;;;;;;;4.85;1.33;;;7.30;99.90;;;;;;5013547;28;20088;-86
2021/12/29 06:16:08;;;;;;;8.05;1.25;;;7.30;99.90;;;;;;5005609;28;20039;-86
2021/12/29 06:18:36;;;;;;;4.20;1.50;;;7.30;99.90;;;;;;5031747;28;20028;-86
2021/12/29 06:21:02;;;;;;;7.47;1.80;;;7.30;99.90;;;;;;5036701;28;20032;-86
2021/12/29 06:23:27;;;;;;;3.25;1.33;;;7.30;99.90;;;;;;4999234;28;20459;-86
2021/12/29 06:25:53;;;;;;;7.35;1.10;;;7.30;99.90;;;;;;5019472;28;20029;-86
2021/12/29 06:28:18;;;;;;;6.57;1.50;;;7.30;99.90;;;;;;5027203;28;20119;-85
2021/12/29 06:30:44;;;;;;;6.03;1.50;;;7.30;99.90;;;;;;5037685;28;20043;-85
2021/12/29 06:33:10;;;;;;;6.55;1.35;;;7.30;99.90;;;;;;5010263;28;20036;-85
2021/12/29 06:35:38;;;;;;;5.13;1.77;;;7.30;99.90;;;;;;5056916;28;20021;-86
2021/12/29 06:38:04;;;;;;;4.45;1.45;;;7.30;99.90;;;;;;5045265;28;20041;-86
2021/12/29 06:40:31;;;;;;;6.60;1.45;;;7.30;99.90;;;;;;5046697;28;20028;-85
2021/12/29 06:42:56;;;;;;;4.55;1.25;;;7.20;99.90;;;;;;5046168;28;20056;-86
2021/12/29 06:45:22;;;;;;;3.03;1.38;;;7.20;99.90;;;;;;5011407;28;20069;-85
2021/12/29 06:47:48;;;;;;;6.18;1.45;;;7.20;99.90;;;;;;5037665;28;20039;-86
2021/12/29 06:50:14;;;;;;;4.00;1.55;;;7.20;99.90;;;;;;5004593;28;20033;-86
2021/12/29 06:52:40;;;;;;;4.25;1.42;;;7.20;99.90;;;;;;5025431;28;20385;-86
2021/12/29 06:55:06;;;;;;;4.88;1.48;;;7.20;99.90;;;;;;5042985;28;20032;-86
2021/12/29 06:57:31;;;;;;;5.60;1.40;;;7.30;99.90;;;;;;5056601;28;20021;-86
2021/12/29 07:00:01;;;;;;;4.03;1.58;;;7.30;99.90;;;;;;5037065;28;20029;-86
2021/12/29 07:02:26;;;;;;;5.65;1.60;;;7.30;99.90;;;;;;5049651;28;20022;-86
2021/12/29 07:04:52;;;;;;;3.70;1.58;;;7.30;99.90;;;;;;5036179;28;20031;-86
2021/12/29 07:07:17;;;;;;;5.40;1.33;;;7.20;99.90;;;;;;5036950;28;20111;-86
2021/12/29 07:09:43;;;;;;;7.15;1.52;;;7.30;99.90;;;;;;5022712;28;20061;-85
2021/12/29 07:12:09;;;;;;;7.03;1.73;;;7.30;99.90;;;;;;5018915;28;20041;-86
2021/12/29 07:14:37;;;;;;;4.70;1.90;;;7.30;99.90;;;;;;5003222;28;20122;-85
2021/12/29 07:17:03;;;;;;;6.88;1.55;;;7.30;99.90;;;;;;5002067;28;20036;-86
2021/12/29 07:19:29;;;;;;;9.23;1.65;;;7.30;99.90;;;;;;5045650;28;20021;-86
2021/12/29 07:21:55;;;;;;;4.20;1.58;;;7.30;99.90;;;;;;5008979;28;20029;-86
2021/12/29 07:24:20;;;;;;;4.78;2.10;;;7.30;99.90;;;;;;5023589;28;20420;-86
2021/12/29 07:26:46;;;;;;;13.10;1.92;;;7.30;99.90;;;;;;5003133;28;20565;-85
2021/12/29 07:29:12;;;;;;;9.85;2.13;;;7.40;99.90;;;;;;5037655;28;20116;-85
2021/12/29 07:31:38;;;;;;;8.25;1.48;;;7.40;99.90;;;;;;5049339;28;20033;-86
2021/12/29 07:34:04;;;;;;;5.75;1.52;;;7.40;99.90;;;;;;5050090;28;20037;-85
2021/12/29 07:36:29;;;;;;;11.05;1.65;;;7.40;99.90;;;;;;5024624;28;20057;-86
2021/12/29 07:38:55;;;;;;;15.27;3.67;;;7.40;99.90;;;;;;5052525;28;20021;-85
2021/12/29 07:41:21;;;;;;;10.48;2.15;;;7.40;99.90;;;;;;5023832;28;20041;-85
2021/12/29 07:43:50;;;;;;;4.20;1.70;;;7.40;99.90;;;;;;5044605;28;20497;-86
2021/12/29 07:46:15;;;;;;;10.00;2.10;;;7.40;99.90;;;;;;5044041;28;20033;-85
2021/12/29 07:48:41;;;;;;;11.07;2.50;;;7.40;99.90;;;;;;5034786;28;20056;-85
2021/12/29 07:51:09;;;;;;;9.32;2.40;;;7.40;99.90;;;;;;5038960;28;20017;-85
2021/12/29 07:53:37;;;;;;;4.05;1.73;;;7.40;99.90;;;;;;5042026;28;20356;-85
2021/12/29 07:56:05;;;;;;;18.48;2.58;;;7.40;99.90;;;;;;5032362;28;20029;-85
2021/12/29 07:58:33;;;;;;;5.80;1.50;;;7.50;99.90;;;;;;5051063;28;20311;-85
2021/12/29 08:00:58;;;;;;;11.65;2.50;;;7.50;99.90;;;;;;5040728;28;20304;-85
2021/12/29 08:03:24;;;;;;;11.00;2.53;;;7.50;99.90;;;;;;5044284;28;20103;-85
2021/12/29 08:05:50;;;;;;;10.88;1.73;;;7.50;99.90;;;;;;5029442;28;20029;-85
2021/12/29 08:08:15;;;;;;;7.78;1.90;;;7.50;99.90;;;;;;5044427;28;20490;-85
2021/12/29 08:10:44;;;;;;;17.20;2.70;;;7.50;99.90;;;;;;5024685;28;20056;-85
2021/12/29 08:13:09;;;;;;;12.13;2.05;;;7.50;99.90;;;;;;5021645;28;20466;-85
2021/12/29 08:15:36;;;;;;;15.35;3.05;;;7.50;99.90;;;;;;5028056;28;20057;-85
2021/12/29 08:18:04;;;;;;;11.65;2.15;;;7.50;99.90;;;;;;5040395;28;20032;-85
2021/12/29 08:20:32;;;;;;;11.55;2.05;;;7.60;99.90;;;;;;5033297;28;20563;-85
2021/12/29 08:22:59;;;;;;;13.85;2.60;;;7.60;99.90;;;;;;5020073;28;20041;-85
2021/12/29 08:25:25;;;;;;;11.20;2.20;;;7.60;99.90;;;;;;5031926;28;20115;-85
2021/12/29 08:27:51;;;;;;;9.43;2.17;;;7.60;99.90;;;;;;5022643;28;20043;-85
2021/12/29 08:30:17;;;;;;;15.70;1.95;;;7.60;99.90;;;;;;5043435;28;20240;-85
2021/12/29 08:32:43;;;;;;;10.50;1.85;;;7.60;99.90;;;;;;5011487;28;20040;-85
2021/12/29 08:35:09;;;;;;;11.88;2.72;;;7.70;99.90;;;;;;5032616;28;20108;-85
2021/12/29 08:37:35;;;;;;;6.25;1.90;;;7.70;99.90;;;;;;5040409;28;20024;-85
2021/12/29 08:40:03;;;;;;;9.40;2.10;;;7.70;99.90;;;;;;5030414;28;20031;-85
2021/12/29 08:42:29;;;;;;;15.88;2.83;;;7.80;99.90;;;;;;5030359;28;20410;-85
2021/12/29 08:44:55;;;;;;;13.45;2.63;;;7.70;99.90;;;;;;5029944;28;20025;-85
2021/12/29 08:47:20;;;;;;;9.43;2.10;;;7.80;99.90;;;;;;5044370;28;20036;-85
2021/12/29 08:49:46;;;;;;;6.40;2.28;;;7.80;99.90;;;;;;4996816;28;20484;-85
2021/12/29 08:52:11;;;;;;;3.88;1.98;;;7.90;99.90;;;;;;5063786;28;20047;-85
2021/12/29 08:54:37;;;;;;;10.38;1.95;;;7.90;99.90;;;;;;5008364;28;20124;-84
2021/12/29 08:57:03;;;;;;;14.60;2.55;;;8.00;99.90;;;;;;5018820;28;20111;-84
2021/12/29 08:59:29;;;;;;;13.00;2.60;;;8.00;99.90;;;;;;5015691;28;20041;-85
2021/12/29 09:01:55;;;;;;;14.20;2.60;;;8.00;99.90;;;;;;5052896;28;20603;-84
2021/12/29 09:04:21;;;;;;;9.32;2.58;;;8.00;99.90;;;;;;5051736;28;20116;-85
2021/12/29 09:06:46;;;;;;;14.20;2.58;;;8.00;99.90;;;;;;4998413;28;20132;-83
2021/12/29 09:09:12;;;;;;;9.25;3.05;;;8.10;99.90;;;;;;5001678;28;20482;-85
2021/12/29 09:11:39;;;;;;;7.45;1.95;;;8.10;99.90;;;;;;5053267;28;20036;-84
2021/12/29 09:14:06;;;;;;;9.00;2.33;;;8.10;99.90;;;;;;5044366;28;20071;-84
2021/12/29 09:16:32;;;;;;;9.68;2.05;;;8.10;99.90;;;;;;5019811;28;20033;-84
2021/12/29 09:18:57;;;;;;;7.38;2.10;;;8.10;99.90;;;;;;5037449;28;20033;-85
2021/12/29 09:21:26;;;;;;;7.75;2.22;;;8.10;99.90;;;;;;5051570;28;20398;-85
2021/12/29 09:23:52;;;;;;;12.52;2.38;;;8.20;99.90;;;;;;5069314;28;20033;-84
2021/12/29 09:26:17;;;;;;;8.30;2.10;;;8.20;99.90;;;;;;5038651;28;20033;-84
2021/12/29 09:28:45;;;;;;;6.32;2.30;;;8.20;99.90;;;;;;5039425;28;20039;-84
2021/12/29 09:31:11;;;;;;;7.82;2.13;;;8.30;99.90;;;;;;5037012;28;20032;-84
2021/12/29 09:33:38;;;;;;;6.53;1.95;;;8.30;99.90;;;;;;5027944;28;20458;-84
2021/12/29 09:36:04;;;;;;;13.40;1.92;;;8.30;99.90;;;;;;5021195;28;20116;-85
2021/12/29 09:38:32;;;;;;;7.03;1.77;;;8.30;99.90;;;;;;5007113;28;20115;-84
2021/12/29 09:40:58;;;;;;;8.10;1.75;;;8.30;99.90;;;;;;5049776;28;20051;-84
2021/12/29 09:43:24;;;;;;;6.03;1.73;;;8.40;99.90;;;;;;5037178;28;20433;-84
2021/12/29 09:45:51;;;;;;;9.73;1.35;;;8.40;99.90;;;;;;5046514;28;20090;-84
2021/12/29 09:48:18;;;;;;;8.95;1.60;;;8.40;99.90;;;;;;5036519;28;20052;-85
2021/12/29 09:50:45;;;;;;;8.05;1.40;;;8.40;99.90;;;;;;5061843;28;20040;-85
2021/12/29 09:53:11;;;;;;;5.22;1.27;;;8.40;99.90;;;;;;5017625;28;20029;-85
2021/12/29 09:55:38;;;;;;;5.50;1.30;;;8.40;99.90;;;;;;5044348;28;20036;-86
2021/12/29 09:58:05;;;;;;;3.97;1.70;;;8.40;99.90;;;;;;5023047;28;20053;-86
2021/12/29 10:00:37;;;;;;;3.60;1.38;;;8.40;99.90;;;;;;5017882;28;20029;-85
2021/12/29 10:03:06;;;;;;;6.53;1.20;;;8.30;99.90;;;;;;5017016;28;20055;-85
2021/12/29 10:05:32;;;;;;;3.97;1.15;;;8.30;99.90;;;;;;5061160;28;20028;-84
2021/12/29 10:08:11;;;;;;;4.00;1.42;;;8.30;99.90;;;;;;5015533;28;20076;-84
2021/12/29 10:10:40;;;;;;;11.00;1.45;;;8.30;99.90;;;;;;5031044;28;20040;-85
2021/12/29 10:13:08;;;;;;;5.13;1.50;;;8.30;99.90;;;;;;5039036;23;20045;-86
2021/12/29 10:15:40;;;;;;;5.10;1.20;;;8.30;99.90;;;;;;5069626;28;20766;-87
2021/12/29 10:18:10;;;;;;;4.20;1.63;;;8.20;99.90;;;;;;5076827;28;20028;-86
2021/12/29 10:20:47;;;;;;;;;;;8.20;99.90;;;;;;5045861;28;20029;-86
2021/12/29 10:23:18;;;;;;;8.77;1.90;;;8.20;99.90;;;;;;5028690;28;20389;-86
2021/12/29 10:25:44;;;;;;;3.10;1.10;;;8.10;99.90;;;;;;5030682;28;20228;-86
2021/12/29 10:28:28;;;;;;;5.10;1.20;;;8.10;99.90;;;;;;5016215;28;20048;-86
2021/12/29 10:31:05;;;;;;;7.03;1.27;;;8.10;99.90;;;;;;5029323;28;20032;-87
2021/12/29 10:33:44;;;;;;;5.20;1.30;;;8.00;99.90;;;;;;5038420;28;20059;-87
2021/12/29 10:36:22;;;;;;;3.90;1.20;;;8.00;99.90;;;;;;5066511;28;20502;-87
2021/12/29 10:39:19;;;;;;;2.58;1.02;;;8.00;99.90;;;;;;5065899;28;20051;-86
2021/12/29 10:42:02;;;;;;;3.28;1.23;;;8.00;99.90;;;;;;5053781;28;20065;-87
2021/12/29 10:44:48;;;;;;;4.72;1.50;;;8.10;99.90;;;;;;5071536;28;20039;-86
2021/12/29 10:47:24;;;;;;;4.85;1.30;;;8.10;99.90;;;;;;5024186;28;20390;-87
2021/12/29 10:50:11;;;;;;;2.28;1.58;;;8.10;99.90;;;;;;5026557;28;20062;-87
2021/12/29 10:52:43;;;;;;;4.68;1.50;;;8.10;99.90;;;;;;5077068;28;20038;-86
2021/12/29 10:55:19;;;;;;;5.50;1.55;;;8.10;99.90;;;;;;5038838;28;20472;-87
2021/12/29 10:57:46;;;;;;;4.38;1.63;;;8.20;99.90;;;;;;5089951;28;20039;-87
2021/12/29 11:00:19;;;;;;;2.78;1.50;;;8.20;99.90;;;;;;5071798;28;20031;-87
2021/12/29 11:02:46;;;;;;;5.70;2.42;;;8.20;99.90;;;;;;5053927;28;20492;-86
2021/12/29 11:05:12;;;;;;;6.22;1.90;;;8.30;99.90;;;;;;5071178;28;20082;-87
2021/12/29 11:07:39;;;;;;;6.65;2.03;;;8.30;99.90;;;;;;5069617;28;20028;-87
2021/12/29 11:10:11;;;;;;;4.53;2.03;;;8.40;99.90;;;;;;5037166;28;20043;-86
2021/12/29 11:12:49;;;;;;;3.75;2.00;;;8.50;99.90;;;;;;5051489;28;20082;-87
2021/12/29 11:15:27;;;;;;;10.18;2.63;;;8.50;99.90;;;;;;5015015;28;20044;-87
2021/12/29 11:17:55;;;;;;;9.80;2.88;;;8.60;99.90;;;;;;5032575;28;20511;-87
2021/12/29 11:20:23;;;;;;;11.80;2.60;;;8.60;99.90;;;;;;5018876;28;20121;-86
2021/12/29 11:22:52;;;;;;;4.20;1.92;;;8.60;99.90;;;;;;5018575;28;20029;-86
2021/12/29 11:25:30;;;;;;;4.07;1.30;;;8.50;99.90;;;;;;5072203;28;20086;-87
2021/12/29 11:27:55;;;;;;;2.97;1.60;;;8.50;99.90;;;;;;5041483;28;20424;-86
2021/12/29 11:30:21;;;;;;;6.15;1.60;;;8.50;99.90;;;;;;5078254;28;20032;-87
2021/12/29 11:32:49;;;;;;;3.63;1.80;;;8.50;99.90;;;;;;5037885;28;20040;-87
2021/12/29 11:35:20;;;;;;;6.03;2.92;;;8.40;99.90;;;;;;5055666;28;20481;-87
2021/12/29 11:37:51;;;;;;;3.80;1.63;;;8.40;99.90;;;;;;5021689;28;20036;-87
2021/12/29 11:40:20;;;;;;;5.05;1.27;;;8.50;99.90;;;;;;5038156;28;20024;-87
2021/12/29 11:42:47;;;;;;;2.08;1.17;;;8.50;99.90;;;;;;5038046;28;20032;-87
2021/12/29 11:45:16;;;;;;;2.88;1.73;;;8.50;99.90;;;;;;5055762;28;20025;-87
2021/12/29 11:47:43;;;;;;;6.18;1.10;;;8.50;99.90;;;;;;5072369;28;20025;-87
2021/12/29 11:50:11;;;;;;;3.83;1.48;;;8.50;99.90;;;;;;5054570;28;20020;-87
2021/12/29 11:53:08;;;;;;;3.53;1.13;;;8.50;99.90;;;;;;5072592;28;20025;-87
2021/12/29 11:55:40;;;;;;;1.40;1.00;;;8.60;99.90;;;;;;5043306;28;20033;-87
2021/12/29 11:58:30;;;;;;;2.28;1.20;;;8.60;99.90;;;;;;5057695;28;20033;-87
2021/12/29 12:01:19;;;;;;;6.75;1.65;;;8.60;99.90;;;;;;5069713;28;20043;-87
2021/12/29 12:03:58;;;;;;;5.47;1.50;;;8.60;99.90;;;;;;5054577;28;20044;-87
2021/12/29 12:06:38;;;;;;;2.05;1.30;;;8.70;99.90;;;;;;5070356;28;20702;-87
2021/12/29 12:09:21;;;;;;;8.05;1.88;;;8.70;99.90;;;;;;5045960;28;20029;-87
2021/12/29 12:11:51;;;;;;;5.45;1.60;;;8.70;99.90;;;;;;5054326;28;20033;-87
2021/12/29 12:14:21;;;;;;;3.45;1.73;;;8.70;99.90;;;;;;5072119;28;20024;-86
2021/12/29 12:16:55;;;;;;;7.13;1.58;;;8.70;99.90;;;;;;5051844;28;20401;-86
2021/12/29 12:19:26;;;;;;;4.65;1.77;;;8.60;99.90;;;;;;5028403;28;20033;-87
2021/12/29 12:22:21;;;;;;;2.88;1.48;;;8.60;99.90;;;;;;5052965;28;20488;-86
2021/12/29 12:24:57;;;;;;;4.25;1.50;;;8.60;99.90;;;;;;5035579;28;20063;-87
2021/12/29 12:27:36;;;;;;;3.20;1.40;;;8.60;99.90;;;;;;5053525;28;20020;-86
2021/12/29 12:30:15;;;;;;;6.10;1.50;;;8.60;99.90;;;;;;5071310;28;20021;-86
2021/12/29 12:32:48;;;;;;;4.93;1.63;;;8.60;99.90;;;;;;5037958;28;20028;-86
2021/12/29 12:35:27;;;;;;;2.28;1.17;;;8.60;99.90;;;;;;5053222;28;20116;-86
2021/12/29 12:37:53;;;;;;;6.28;1.65;;;8.60;99.90;;;;;;5049768;28;20035;-86
2021/12/29 12:40:25;;;;;;;5.78;1.90;;;8.50;99.90;;;;;;5057027;28;20034;-86
2021/12/29 12:43:11;;;;;;;3.55;1.35;;;8.60;99.90;;;;;;5093204;28;20055;-86
2021/12/29 12:45:39;;;;;;;6.00;1.48;;;8.60;99.90;;;;;;5074036;28;20107;-86
2021/12/29 12:48:18;;;;;;;2.58;1.50;;;8.60;99.90;;;;;;5042659;28;20037;-86
2021/12/29 12:50:44;;;;;;;6.00;2.03;;;8.60;99.90;;;;;;5037617;28;20025;-86
2021/12/29 12:53:11;;;;;;;5.95;1.80;;;8.60;99.90;;;;;;5075622;28;20036;-86
2021/12/29 12:55:47;;;;;;;5.95;1.13;;;8.60;99.90;;;;;;5075395;28;20021;-86
2021/12/29 12:58:15;;;;;;;3.50;1.40;;;8.60;99.90;;;;;;5092128;28;20050;-86
2021/12/29 13:00:54;;;;;;;4.35;1.20;;;8.60;99.90;;;;;;5073417;28;20377;-86
2021/12/29 13:03:22;;;;;;;4.07;1.40;;;8.60;99.90;;;;;;5049456;28;20175;-86
2021/12/29 13:05:52;;;;;;;3.20;1.55;;;8.60;99.90;;;;;;5050304;28;20100;-86
2021/12/29 13:08:40;;;;;;;3.92;1.42;;;8.60;99.90;;;;;;5016190;28;20057;-86
2021/12/29 13:11:10;;;;;;;8.18;1.73;;;8.60;99.90;;;;;;5022436;28;20425;-86